sensor_id;sensor_type;location;lat;lon;timestamp;pressure;altitude;pressure_sealevel;temperature;humidity
44075;BME280;60448;44.956;7.660;2022-09-17T00:00:00;97390;;;26.4;31.3
44075;BME280;60448;44.956;7.660;2022-09-17T00:05:00;97390;;;26.4;31.3
44075;BME280;60448;44.956;7.660;2022-09-17T00:10:00;97400;;;26.4;31.5
44075;BME280;60448;44.956;7.660;2022-09-17T00:15:00;97400;;;26.4;31.6
44075;BME280;60448;44.956;7.660;2022-09-17T00:20:00;97400;;;26.4;31.7
44075;BME280;60448;44.956;7.660;2022-09-17T00:25:00;97400;;;26.4;31.8
44075;BME280;60448;44.956;7.660;2022-09-17T00:30:00;97400;;;26.4;31.9
44075;BME280;60448;44.956;7.660;2022-09-17T00:35:00;97400;;;26.4;31.8
44075;BME280;60448;44.956;7.660;2022-09-17T00:40:00;97400;;;26.4;32.0
44075;BME280;60448;44.956;7.660;2022-09-17T00:45:00;97400;;;26.4;32.1
44075;BME280;60448;44.956;7.660;2022-09-17T00:50:01;97390;;;26.4;32.1
44075;BME280;60448;44.956;7.660;2022-09-17T00:55:02;97390;;;26.4;32.2
44075;BME280;60448;44.956;7.660;2022-09-17T01:00:00;97390;;;26.4;32.1
44075;BME280;60448;44.956;7.660;2022-09-17T01:05:00;97390;;;26.4;32.3
44075;BME280;60448;44.956;7.660;2022-09-17T01:20:06;97400;;;26.4;32.4
44075;BME280;60448;44.956;7.660;2022-09-17T01:35:02;97420;;;26.3;32.4
44075;BME280;60448;44.956;7.660;2022-09-17T01:40:10;97420;;;26.3;32.5
44075;BME280;60448;44.956;7.660;2022-09-17T01:50:02;97430;;;26.3;32.7
44075;BME280;60448;44.956;7.660;2022-09-17T01:55:01;97430;;;26.3;32.7
44075;BME280;60448;44.956;7.660;2022-09-17T02:00:01;97430;;;26.3;32.9
44075;BME280;60448;44.956;7.660;2022-09-17T02:05:02;97420;;;26.3;32.9
44075;BME280;60448;44.956;7.660;2022-09-17T02:10:03;97420;;;26.3;33.0
44075;BME280;60448;44.956;7.660;2022-09-17T02:15:01;97420;;;26.3;33.1
44075;BME280;60448;44.956;7.660;2022-09-17T02:20:00;97420;;;26.3;33.2
44075;BME280;60448;44.956;7.660;2022-09-17T02:25:09;97430;;;26.3;33.3
44075;BME280;60448;44.956;7.660;2022-09-17T02:30:04;97430;;;26.3;33.4
44075;BME280;60448;44.956;7.660;2022-09-17T02:35:00;97420;;;26.2;33.5
44075;BME280;60448;44.956;7.660;2022-09-17T02:40:00;97420;;;26.2;33.5
44075;BME280;60448;44.956;7.660;2022-09-17T02:55:06;97430;;;26.2;33.4
44075;BME280;60448;44.956;7.660;2022-09-17T03:00:06;97430;;;26.1;33.5
44075;BME280;60448;44.956;7.660;2022-09-17T03:05:00;97440;;;26.1;33.6
44075;BME280;60448;44.956;7.660;2022-09-17T03:10:00;97450;;;26.1;33.5
44075;BME280;60448;44.956;7.660;2022-09-17T03:15:00;97450;;;26.1;33.6
44075;BME280;60448;44.956;7.660;2022-09-17T03:20:00;97450;;;26.1;33.4
44075;BME280;60448;44.956;7.660;2022-09-17T03:25:00;97450;;;26.0;33.2
44075;BME280;60448;44.956;7.660;2022-09-17T03:30:00;97450;;;26.0;33.3
44075;BME280;60448;44.956;7.660;2022-09-17T03:35:00;97450;;;26.0;33.3
44075;BME280;60448;44.956;7.660;2022-09-17T03:40:00;97470;;;26.0;32.8
44075;BME280;60448;44.956;7.660;2022-09-17T03:45:00;97470;;;25.9;32.9
44075;BME280;60448;44.956;7.660;2022-09-17T03:50:00;97470;;;25.9;32.9
44075;BME280;60448;44.956;7.660;2022-09-17T03:55:00;97470;;;25.9;32.9
44075;BME280;60448;44.956;7.660;2022-09-17T04:00:00;97480;;;25.8;32.6
44075;BME280;60448;44.956;7.660;2022-09-17T04:05:00;97490;;;25.8;32.5
44075;BME280;60448;44.956;7.660;2022-09-17T04:10:00;97490;;;25.8;32.5
44075;BME280;60448;44.956;7.660;2022-09-17T04:15:00;97490;;;25.8;32.5
44075;BME280;60448;44.956;7.660;2022-09-17T04:20:00;97510;;;25.8;32.5
44075;BME280;60448;44.956;7.660;2022-09-17T04:25:00;97510;;;25.8;32.5
44075;BME280;60448;44.956;7.660;2022-09-17T04:30:00;97510;;;25.8;32.5
44075;BME280;60448;44.956;7.660;2022-09-17T04:35:00;97530;;;25.8;33.0
44075;BME280;60448;44.956;7.660;2022-09-17T04:40:00;97540;;;25.8;32.7
44075;BME280;60448;44.956;7.660;2022-09-17T04:45:00;97540;;;25.8;32.8
44075;BME280;60448;44.956;7.660;2022-09-17T04:50:00;97540;;;25.8;32.8
44075;BME280;60448;44.956;7.660;2022-09-17T04:55:00;97540;;;25.8;32.8
44075;BME280;60448;44.956;7.660;2022-09-17T05:00:00;97550;;;25.7;32.8
44075;BME280;60448;44.956;7.660;2022-09-17T05:05:01;97560;;;25.7;32.9
44075;BME280;60448;44.956;7.660;2022-09-17T05:10:00;97560;;;25.7;32.9
44075;BME280;60448;44.956;7.660;2022-09-17T05:15:00;97560;;;25.7;32.9
44075;BME280;60448;44.956;7.660;2022-09-17T05:20:00;97570;;;25.7;33.3
44075;BME280;60448;44.956;7.660;2022-09-17T05:25:00;97570;;;25.7;33.3
44075;BME280;60448;44.956;7.660;2022-09-17T05:30:00;97570;;;25.7;33.3
44075;BME280;60448;44.956;7.660;2022-09-17T05:35:00;97580;;;25.7;33.4
44075;BME280;60448;44.956;7.660;2022-09-17T05:40:00;97590;;;25.7;33.0
44075;BME280;60448;44.956;7.660;2022-09-17T05:45:00;97590;;;25.7;33.0
44075;BME280;60448;44.956;7.660;2022-09-17T05:50:00;97590;;;25.7;33.0
44075;BME280;60448;44.956;7.660;2022-09-17T05:55:00;97610;;;25.7;33.2
44075;BME280;60448;44.956;7.660;2022-09-17T06:00:00;97620;;;25.6;33.1
44075;BME280;60448;44.956;7.660;2022-09-17T06:05:00;97620;;;25.6;33.1
44075;BME280;60448;44.956;7.660;2022-09-17T06:10:00;97620;;;25.6;33.1
44075;BME280;60448;44.956;7.660;2022-09-17T06:15:00;97640;;;25.5;32.7
44075;BME280;60448;44.956;7.660;2022-09-17T06:20:00;97640;;;25.5;32.7
44075;BME280;60448;44.956;7.660;2022-09-17T06:25:00;97640;;;25.5;32.7
44075;BME280;60448;44.956;7.660;2022-09-17T06:30:00;97680;;;25.5;32.9
44075;BME280;60448;44.956;7.660;2022-09-17T06:35:00;97690;;;25.5;33.1
44075;BME280;60448;44.956;7.660;2022-09-17T06:40:00;97690;;;25.5;33.1
44075;BME280;60448;44.956;7.660;2022-09-17T06:45:00;97690;;;25.5;33.1
44075;BME280;60448;44.956;7.660;2022-09-17T06:50:00;97720;;;25.5;33.1
44075;BME280;60448;44.956;7.660;2022-09-17T06:55:00;97720;;;25.5;33.1
44075;BME280;60448;44.956;7.660;2022-09-17T07:00:00;97720;;;25.5;33.1
44075;BME280;60448;44.956;7.660;2022-09-17T07:05:00;97740;;;25.5;33.9
44075;BME280;60448;44.956;7.660;2022-09-17T07:10:00;97740;;;25.5;33.9
44075;BME280;60448;44.956;7.660;2022-09-17T07:15:00;97740;;;25.5;33.9
44075;BME280;60448;44.956;7.660;2022-09-17T07:20:03;97750;;;25.6;35.9
44075;BME280;60448;44.956;7.660;2022-09-17T07:25:00;97750;;;25.6;35.9
44075;BME280;60448;44.956;7.660;2022-09-17T07:30:01;97750;;;25.6;35.9
44075;BME280;60448;44.956;7.660;2022-09-17T07:35:00;97790;;;24.7;25.9
44075;BME280;60448;44.956;7.660;2022-09-17T07:40:00;97770;;;24.5;25.3
44075;BME280;60448;44.956;7.660;2022-09-17T07:45:00;97790;;;24.3;24.6
44075;BME280;60448;44.956;7.660;2022-09-17T07:50:00;97770;;;24.2;23.6
44075;BME280;60448;44.956;7.660;2022-09-17T07:55:00;97780;;;24.2;23.8
44075;BME280;60448;44.956;7.660;2022-09-17T08:00:00;97800;;;24.2;24.2
44075;BME280;60448;44.956;7.660;2022-09-17T08:05:00;97790;;;24.3;24.0
44075;BME280;60448;44.956;7.660;2022-09-17T08:10:00;97800;;;24.3;23.9
44075;BME280;60448;44.956;7.660;2022-09-17T08:15:00;97800;;;24.3;23.2
44075;BME280;60448;44.956;7.660;2022-09-17T08:20:00;97810;;;24.3;24.0
44075;BME280;60448;44.956;7.660;2022-09-17T08:25:00;97810;;;24.4;23.9
44075;BME280;60448;44.956;7.660;2022-09-17T08:30:00;97810;;;24.4;23.3
44075;BME280;60448;44.956;7.660;2022-09-17T08:35:00;97810;;;24.3;22.4
44075;BME280;60448;44.956;7.660;2022-09-17T08:40:00;97820;;;24.2;21.1
44075;BME280;60448;44.956;7.660;2022-09-17T08:45:01;97820;;;24.2;20.9
44075;BME280;60448;44.956;7.660;2022-09-17T08:50:00;97820;;;24.1;20.8
44075;BME280;60448;44.956;7.660;2022-09-17T09:00:06;97820;;;24.1;21.3
44075;BME280;60448;44.956;7.660;2022-09-17T09:05:01;97820;;;24.2;21.1
44075;BME280;60448;44.956;7.660;2022-09-17T09:15:01;97840;;;24.2;20.2
44075;BME280;60448;44.956;7.660;2022-09-17T09:20:00;97830;;;24.2;20.9
44075;BME280;60448;44.956;7.660;2022-09-17T09:25:04;97840;;;24.2;20.5
44075;BME280;60448;44.956;7.660;2022-09-17T09:35:01;97850;;;24.2;20.1
44075;BME280;60448;44.956;7.660;2022-09-17T09:40:03;97840;;;24.2;20.4
44075;BME280;60448;44.956;7.660;2022-09-17T09:45:00;97840;;;24.3;20.6
44075;BME280;60448;44.956;7.660;2022-09-17T09:50:04;97840;;;24.3;21.4
44075;BME280;60448;44.956;7.660;2022-09-17T10:05:07;97850;;;24.5;21.0
44075;BME280;60448;44.956;7.660;2022-09-17T10:10:06;97850;;;24.5;21.0
44075;BME280;60448;44.956;7.660;2022-09-17T10:15:06;97850;;;24.5;21.0
44075;BME280;60448;44.956;7.660;2022-09-17T10:25:02;97850;;;24.6;21.4
44075;BME280;60448;44.956;7.660;2022-09-17T10:35:02;97850;;;24.7;22.3
44075;BME280;60448;44.956;7.660;2022-09-17T10:40:00;97860;;;24.7;22.7
44075;BME280;60448;44.956;7.660;2022-09-17T10:45:00;97870;;;24.8;22.8
44075;BME280;60448;44.956;7.660;2022-09-17T10:50:01;97870;;;24.8;23.4
44075;BME280;60448;44.956;7.660;2022-09-17T11:00:03;97870;;;24.8;23.4
44075;BME280;60448;44.956;7.660;2022-09-17T11:20:04;97880;;;24.9;23.5
44075;BME280;60448;44.956;7.660;2022-09-17T11:30:02;97870;;;24.9;23.2
44075;BME280;60448;44.956;7.660;2022-09-17T11:45:02;97870;;;25.0;21.8
44075;BME280;60448;44.956;7.660;2022-09-17T11:55:08;97880;;;25.0;22.1
44075;BME280;60448;44.956;7.660;2022-09-17T12:00:04;97880;;;25.0;22.1
44075;BME280;60448;44.956;7.660;2022-09-17T12:05:02;97880;;;25.0;22.1
44075;BME280;60448;44.956;7.660;2022-09-17T12:20:03;97890;;;25.0;21.7
44075;BME280;60448;44.956;7.660;2022-09-17T12:25:00;97890;;;25.0;21.7
44075;BME280;60448;44.956;7.660;2022-09-17T12:30:04;97890;;;25.1;21.2
44075;BME280;60448;44.956;7.660;2022-09-17T12:40:05;97890;;;25.1;21.3
44075;BME280;60448;44.956;7.660;2022-09-17T12:45:04;97890;;;25.1;21.3
44075;BME280;60448;44.956;7.660;2022-09-17T12:50:09;97900;;;25.1;21.6
44075;BME280;60448;44.956;7.660;2022-09-17T13:20:02;97920;;;25.1;21.9
44075;BME280;60448;44.956;7.660;2022-09-17T13:30:00;97920;;;25.1;22.6
44075;BME280;60448;44.956;7.660;2022-09-17T13:40:00;97920;;;25.1;22.6
44075;BME280;60448;44.956;7.660;2022-09-17T13:45:04;97920;;;25.1;22.6
44075;BME280;60448;44.956;7.660;2022-09-17T13:50:02;97910;;;25.1;22.5
44075;BME280;60448;44.956;7.660;2022-09-17T13:55:00;97910;;;25.1;22.5
44075;BME280;60448;44.956;7.660;2022-09-17T14:00:00;97910;;;25.1;22.5
44075;BME280;60448;44.956;7.660;2022-09-17T14:05:18;97910;;;25.1;22.1
44075;BME280;60448;44.956;7.660;2022-09-17T14:15:00;97910;;;25.1;22.1
44075;BME280;60448;44.956;7.660;2022-09-17T14:20:00;97920;;;25.1;22.3
44075;BME280;60448;44.956;7.660;2022-09-17T14:25:00;97920;;;25.1;22.3
44075;BME280;60448;44.956;7.660;2022-09-17T14:30:01;97920;;;25.1;22.3
44075;BME280;60448;44.956;7.660;2022-09-17T14:35:01;97920;;;25.2;22.2
44075;BME280;60448;44.956;7.660;2022-09-17T14:40:00;97920;;;25.2;22.2
44075;BME280;60448;44.956;7.660;2022-09-17T14:45:01;97920;;;25.2;22.2
44075;BME280;60448;44.956;7.660;2022-09-17T15:00:00;97910;;;25.2;22.6
44075;BME280;60448;44.956;7.660;2022-09-17T15:05:00;97930;;;25.3;22.4
44075;BME280;60448;44.956;7.660;2022-09-17T15:10:11;97920;;;25.2;22.6
44075;BME280;60448;44.956;7.660;2022-09-17T15:15:00;97920;;;25.2;22.6
44075;BME280;60448;44.956;7.660;2022-09-17T15:20:01;97920;;;25.2;22.6
44075;BME280;60448;44.956;7.660;2022-09-17T15:25:03;97940;;;25.2;22.7
44075;BME280;60448;44.956;7.660;2022-09-17T15:30:03;97940;;;25.2;22.7
44075;BME280;60448;44.956;7.660;2022-09-17T15:35:08;97940;;;25.2;22.7
44075;BME280;60448;44.956;7.660;2022-09-17T15:40:00;97960;;;25.2;23.4
44075;BME280;60448;44.956;7.660;2022-09-17T15:45:08;97960;;;25.2;23.4
44075;BME280;60448;44.956;7.660;2022-09-17T15:55:00;97960;;;25.3;23.4
44075;BME280;60448;44.956;7.660;2022-09-17T16:00:10;97960;;;25.3;23.4
44075;BME280;60448;44.956;7.660;2022-09-17T16:10:00;97970;;;25.3;23.5
44075;BME280;60448;44.956;7.660;2022-09-17T16:15:00;97970;;;25.3;23.5
44075;BME280;60448;44.956;7.660;2022-09-17T16:20:08;97970;;;25.3;23.5
44075;BME280;60448;44.956;7.660;2022-09-17T16:25:00;97990;;;25.3;24.0
44075;BME280;60448;44.956;7.660;2022-09-17T16:30:01;97990;;;25.3;24.1
44075;BME280;60448;44.956;7.660;2022-09-17T16:35:00;97990;;;25.3;24.1
44075;BME280;60448;44.956;7.660;2022-09-17T16:40:00;98020;;;25.2;24.9
44075;BME280;60448;44.956;7.660;2022-09-17T16:45:00;98020;;;25.2;24.9
44075;BME280;60448;44.956;7.660;2022-09-17T16:50:00;98020;;;25.2;24.9
44075;BME280;60448;44.956;7.660;2022-09-17T16:55:00;98030;;;25.2;25.6
44075;BME280;60448;44.956;7.660;2022-09-17T17:00:00;98040;;;25.2;25.9
44075;BME280;60448;44.956;7.660;2022-09-17T17:05:00;98040;;;25.2;25.9
44075;BME280;60448;44.956;7.660;2022-09-17T17:10:00;98040;;;25.2;25.9
44075;BME280;60448;44.956;7.660;2022-09-17T17:15:00;98060;;;25.3;25.9
44075;BME280;60448;44.956;7.660;2022-09-17T17:20:02;98070;;;25.3;26.2
44075;BME280;60448;44.956;7.660;2022-09-17T17:25:00;98070;;;25.3;26.5
44075;BME280;60448;44.956;7.660;2022-09-17T17:30:00;98070;;;25.3;26.5
44075;BME280;60448;44.956;7.660;2022-09-17T17:35:00;98070;;;25.3;26.5
44075;BME280;60448;44.956;7.660;2022-09-17T17:40:00;98090;;;25.3;27.7
44075;BME280;60448;44.956;7.660;2022-09-17T17:45:00;98090;;;25.3;27.8
44075;BME280;60448;44.956;7.660;2022-09-17T17:50:00;98090;;;25.3;27.8
44075;BME280;60448;44.956;7.660;2022-09-17T17:55:00;98090;;;25.3;27.8
44075;BME280;60448;44.956;7.660;2022-09-17T18:00:01;98120;;;25.2;29.5
44075;BME280;60448;44.956;7.660;2022-09-17T18:05:00;98120;;;25.2;29.5
44075;BME280;60448;44.956;7.660;2022-09-17T18:10:00;98120;;;25.2;29.5
44075;BME280;60448;44.956;7.660;2022-09-17T18:15:00;98170;;;25.5;29.8
44075;BME280;60448;44.956;7.660;2022-09-17T18:20:00;98170;;;25.3;30.3
44075;BME280;60448;44.956;7.660;2022-09-17T18:25:00;98170;;;25.3;30.3
44075;BME280;60448;44.956;7.660;2022-09-17T18:30:00;98170;;;25.3;30.3
44075;BME280;60448;44.956;7.660;2022-09-17T18:35:00;98200;;;25.5;31.5
44075;BME280;60448;44.956;7.660;2022-09-17T18:40:00;98200;;;25.5;31.5
44075;BME280;60448;44.956;7.660;2022-09-17T18:45:00;98200;;;25.5;31.5
44075;BME280;60448;44.956;7.660;2022-09-17T18:50:00;98260;;;25.6;34.9
44075;BME280;60448;44.956;7.660;2022-09-17T18:55:00;98260;;;25.6;34.9
44075;BME280;60448;44.956;7.660;2022-09-17T19:00:00;98260;;;25.6;34.9
44075;BME280;60448;44.956;7.660;2022-09-17T19:05:00;98310;;;25.8;35.5
44075;BME280;60448;44.956;7.660;2022-09-17T19:10:00;98310;;;25.8;35.5
44075;BME280;60448;44.956;7.660;2022-09-17T19:15:00;98310;;;25.8;35.5
44075;BME280;60448;44.956;7.660;2022-09-17T19:20:00;98320;;;25.9;34.8
44075;BME280;60448;44.956;7.660;2022-09-17T19:25:00;98320;;;25.9;35.0
44075;BME280;60448;44.956;7.660;2022-09-17T19:30:00;98320;;;25.9;35.0
44075;BME280;60448;44.956;7.660;2022-09-17T19:35:00;98340;;;25.9;34.5
44075;BME280;60448;44.956;7.660;2022-09-17T19:40:00;98340;;;25.9;34.5
44075;BME280;60448;44.956;7.660;2022-09-17T19:45:00;98340;;;25.9;34.5
44075;BME280;60448;44.956;7.660;2022-09-17T19:50:00;98360;;;25.8;32.8
44075;BME280;60448;44.956;7.660;2022-09-17T19:55:00;98360;;;25.8;32.9
44075;BME280;60448;44.956;7.660;2022-09-17T20:00:00;98360;;;25.8;32.9
44075;BME280;60448;44.956;7.660;2022-09-17T20:05:03;98360;;;25.8;32.9
44075;BME280;60448;44.956;7.660;2022-09-17T20:10:00;98380;;;25.8;33.5
44075;BME280;60448;44.956;7.660;2022-09-17T20:15:00;98380;;;25.8;33.5
44075;BME280;60448;44.956;7.660;2022-09-17T20:20:00;98380;;;25.8;33.5
44075;BME280;60448;44.956;7.660;2022-09-17T20:25:00;98400;;;25.9;33.5
44075;BME280;60448;44.956;7.660;2022-09-17T20:30:00;98400;;;25.9;33.5
44075;BME280;60448;44.956;7.660;2022-09-17T20:35:00;98400;;;25.9;33.5
44075;BME280;60448;44.956;7.660;2022-09-17T20:40:00;98420;;;25.9;34.4
44075;BME280;60448;44.956;7.660;2022-09-17T20:45:00;98420;;;25.9;34.4
44075;BME280;60448;44.956;7.660;2022-09-17T20:50:00;98420;;;25.9;34.4
44075;BME280;60448;44.956;7.660;2022-09-17T20:55:00;98440;;;25.8;32.6
44075;BME280;60448;44.956;7.660;2022-09-17T21:00:00;98440;;;25.8;32.6
44075;BME280;60448;44.956;7.660;2022-09-17T21:05:00;98440;;;25.8;32.6
44075;BME280;60448;44.956;7.660;2022-09-17T21:10:00;98470;;;25.7;34.8
44075;BME280;60448;44.956;7.660;2022-09-17T21:15:00;98470;;;25.7;34.8
44075;BME280;60448;44.956;7.660;2022-09-17T21:20:00;98470;;;25.7;34.8
44075;BME280;60448;44.956;7.660;2022-09-17T21:25:00;98480;;;25.8;34.9
44075;BME280;60448;44.956;7.660;2022-09-17T21:30:00;98480;;;25.8;35.0
44075;BME280;60448;44.956;7.660;2022-09-17T21:35:00;98480;;;25.8;35.0
44075;BME280;60448;44.956;7.660;2022-09-17T21:40:00;98480;;;25.8;35.0
44075;BME280;60448;44.956;7.660;2022-09-17T21:45:00;98510;;;25.9;34.4
44075;BME280;60448;44.956;7.660;2022-09-17T21:50:00;98510;;;25.9;34.4
44075;BME280;60448;44.956;7.660;2022-09-17T21:55:00;98510;;;25.9;34.4
44075;BME280;60448;44.956;7.660;2022-09-17T22:00:00;98530;;;25.9;34.5
44075;BME280;60448;44.956;7.660;2022-09-17T22:05:00;98530;;;25.9;34.5
44075;BME280;60448;44.956;7.660;2022-09-17T22:10:00;98530;;;25.9;34.5
44075;BME280;60448;44.956;7.660;2022-09-17T22:15:00;98530;;;25.9;34.0
44075;BME280;60448;44.956;7.660;2022-09-17T22:20:00;98530;;;25.9;34.0
44075;BME280;60448;44.956;7.660;2022-09-17T22:25:00;98530;;;25.9;34.0
44075;BME280;60448;44.956;7.660;2022-09-17T22:30:00;98540;;;25.8;34.3
44075;BME280;60448;44.956;7.660;2022-09-17T22:35:00;98540;;;25.8;34.3
44075;BME280;60448;44.956;7.660;2022-09-17T22:40:01;98540;;;25.8;34.3
44075;BME280;60448;44.956;7.660;2022-09-17T22:45:00;98540;;;25.8;34.4
44075;BME280;60448;44.956;7.660;2022-09-17T22:50:00;98540;;;25.8;34.4
44075;BME280;60448;44.956;7.660;2022-09-17T22:55:00;98540;;;25.8;34.4
44075;BME280;60448;44.956;7.660;2022-09-17T23:00:00;98540;;;25.8;33.8
44075;BME280;60448;44.956;7.660;2022-09-17T23:05:00;98540;;;25.8;33.8
44075;BME280;60448;44.956;7.660;2022-09-17T23:10:00;98540;;;25.8;33.8
44075;BME280;60448;44.956;7.660;2022-09-17T23:15:00;98540;;;25.8;34.5
44075;BME280;60448;44.956;7.660;2022-09-17T23:20:00;98540;;;25.8;34.5
44075;BME280;60448;44.956;7.660;2022-09-17T23:25:00;98540;;;25.8;34.5
44075;BME280;60448;44.956;7.660;2022-09-17T23:30:00;98550;;;25.8;34.1
44075;BME280;60448;44.956;7.660;2022-09-17T23:35:00;98550;;;25.8;34.1
44075;BME280;60448;44.956;7.660;2022-09-17T23:40:00;98550;;;25.8;34.1
44075;BME280;60448;44.956;7.660;2022-09-17T23:45:00;98560;;;25.8;33.9
44075;BME280;60448;44.956;7.660;2022-09-17T23:50:00;98560;;;25.7;34.0
44075;BME280;60448;44.956;7.660;2022-09-17T23:55:00;98560;;;25.7;34.0
